Time,TemperatureF,DewpointF,PressureIn,WindDirection,WindDirectionDegrees,WindSpeedMPH,WindSpeedGustMPH,Humidity,HourlyPrecipIn,Conditions,Clouds,dailyrainin,SolarRadiationWatts/m^2,SoftwareType,DateUTC
2013-07-13 00:01:00,77.0,75.0,-100.00,ESE,104,4.0,-999.0,91,0.00,,,-99.99,0.000000,,2013-07-13 04:01:00,
2013-07-13 00:12:00,77.0,75.0,-100.00,ESE,114,3.0,-999.0,92,0.00,,,-99.99,0.000000,,2013-07-13 04:12:00,
2013-07-13 00:22:00,77.0,75.0,-100.00,SE,128,3.0,-999.0,92,0.00,,,-99.99,0.000000,,2013-07-13 04:22:00,
2013-07-13 00:43:00,77.0,75.0,-100.00,SE,133,2.0,-999.0,92,0.00,,,-99.99,0.000000,,2013-07-13 04:43:00,
2013-07-13 00:52:00,77.0,75.0,-100.00,SSE,156,2.0,-999.0,92,0.00,,,-99.99,0.000000,,2013-07-13 04:52:00,
2013-07-13 01:11:00,77.0,74.0,-100.00,SSE,163,3.0,-999.0,92,0.00,,,-99.99,0.000000,,2013-07-13 05:11:00,
2013-07-13 01:32:00,76.0,74.0,-100.00,SSE,163,3.0,-999.0,92,0.00,,,-99.99,0.000000,,2013-07-13 05:32:00,
2013-07-13 01:52:00,76.0,73.0,-100.00,South,187,1.0,-999.0,92,0.00,,,-99.99,0.000000,,2013-07-13 05:52:00,
2013-07-13 02:02:00,76.0,73.0,-100.00,South,187,1.0,-999.0,92,0.00,,,-99.99,0.000000,,2013-07-13 06:02:00,
2013-07-13 02:11:00,76.0,73.0,-100.00,SW,228,3.0,-999.0,92,0.00,,,-99.99,0.000000,,2013-07-13 06:11:00,
2013-07-13 02:43:00,76.0,74.0,-100.00,SSE,156,2.0,-999.0,93,0.00,,,-99.99,0.000000,,2013-07-13 06:43:00,
2013-07-13 02:52:00,75.0,73.0,-100.00,South,177,2.0,-999.0,93,0.00,,,-99.99,0.000000,,2013-07-13 06:52:00,
2013-07-13 03:02:00,75.0,73.0,-100.00,South,177,2.0,-999.0,93,0.00,,,-99.99,0.000000,,2013-07-13 07:02:00,
2013-07-13 03:11:00,75.0,73.0,-100.00,South,173,2.0,-999.0,94,0.00,,,-99.99,0.000000,,2013-07-13 07:11:00,
2013-07-13 03:22:00,75.0,73.0,-100.00,SE,146,2.0,-999.0,95,0.00,,,-99.99,0.000000,,2013-07-13 07:22:00,
2013-07-13 03:53:00,75.0,74.0,-100.00,SE,144,3.0,-999.0,95,0.00,,,-99.99,0.000000,,2013-07-13 07:53:00,
2013-07-13 04:22:00,75.0,74.0,-100.00,SE,137,2.0,-999.0,96,0.00,,,-99.99,0.000000,,2013-07-13 08:22:00,
2013-07-13 04:52:00,75.0,74.0,-100.00,SE,143,2.0,-999.0,96,0.00,,,-99.99,0.000000,,2013-07-13 08:52:00,
2013-07-13 05:02:00,75.0,74.0,-100.00,SSE,149,3.0,-999.0,96,0.00,,,-99.99,0.000000,,2013-07-13 09:02:00,
2013-07-13 05:22:00,75.0,74.0,-100.00,SSE,151,2.0,-999.0,97,0.00,,,-99.99,0.000000,,2013-07-13 09:22:00,
2013-07-13 05:53:00,74.0,74.0,-100.00,SE,133,2.0,-999.0,97,0.00,,,-99.99,0.000000,,2013-07-13 09:53:00,
2013-07-13 06:01:00,74.0,73.0,-100.00,SSE,162,2.0,-999.0,97,0.00,,,-99.99,0.000000,,2013-07-13 10:01:00,
2013-07-13 06:11:00,74.0,73.0,-100.00,SSE,162,2.0,-999.0,97,0.00,,,-99.99,0.000000,,2013-07-13 10:11:00,
2013-07-13 06:22:00,74.0,73.0,-100.00,SSW,197,1.0,-999.0,97,0.00,,,-99.99,0.000000,,2013-07-13 10:22:00,
2013-07-13 06:43:00,73.0,73.0,-100.00,SE,137,1.0,-999.0,98,0.00,,,-99.99,0.000000,,2013-07-13 10:43:00,
2013-07-13 06:52:00,73.0,73.0,-100.00,SE,137,1.0,-999.0,98,0.00,,,-99.99,0.000000,,2013-07-13 10:52:00,
2013-07-13 07:11:00,73.0,73.0,-100.00,East,94,1.0,-999.0,98,0.00,,,-99.99,3.200000,,2013-07-13 11:11:00,
2013-07-13 07:42:00,74.0,73.0,-100.00,ESE,119,1.0,-999.0,98,0.00,,,-99.99,44.900002,,2013-07-13 11:42:00,
2013-07-13 07:52:00,74.0,73.0,-100.00,ESE,119,1.0,-999.0,98,0.00,,,-99.99,44.900002,,2013-07-13 11:52:00,
2013-07-13 08:12:00,76.0,75.0,-100.00,East,86,1.0,-999.0,96,0.00,,,-99.99,31.600000,,2013-07-13 12:12:00,
2013-07-13 08:22:00,78.0,76.0,-100.00,ESE,107,1.0,-999.0,94,0.00,,,-99.99,46.000000,,2013-07-13 12:22:00,
2013-07-13 08:32:00,78.0,76.0,-100.00,ESE,107,1.0,-999.0,94,0.00,,,-99.99,46.000000,,2013-07-13 12:32:00,
2013-07-13 08:52:00,79.0,75.0,-100.00,SE,134,4.0,-999.0,89,0.00,,,-99.99,210.800003,,2013-07-13 12:52:00,
2013-07-13 09:01:00,79.0,75.0,-100.00,SE,134,4.0,-999.0,89,0.00,,,-99.99,210.800003,,2013-07-13 13:01:00,
2013-07-13 09:12:00,80.0,75.0,-100.00,SSE,159,3.0,-999.0,85,0.00,,,-99.99,280.100006,,2013-07-13 13:12:00,
2013-07-13 09:53:00,82.0,74.0,-100.00,South,169,4.0,-999.0,77,0.00,,,-99.99,457.899994,,2013-07-13 13:53:00,
2013-07-13 10:02:00,82.0,74.0,-100.00,South,169,4.0,-999.0,77,0.00,,,-99.99,457.899994,,2013-07-13 14:02:00,
2013-07-13 10:11:00,83.0,75.0,-100.00,SSE,162,5.0,-999.0,76,0.00,,,-99.99,479.899994,,2013-07-13 14:11:00,
2013-07-13 10:22:00,83.0,75.0,-100.00,SSE,147,4.0,-999.0,76,0.00,,,-99.99,538.400024,,2013-07-13 14:22:00,
2013-07-13 10:32:00,83.0,75.0,-100.00,SSE,147,4.0,-999.0,76,0.00,,,-99.99,538.400024,,2013-07-13 14:32:00,
2013-07-13 10:43:00,84.0,75.0,-100.00,South,172,5.0,-999.0,75,0.00,,,-99.99,599.000000,,2013-07-13 14:43:00,
2013-07-13 10:53:00,84.0,75.0,-100.00,SSE,165,5.0,-999.0,73,0.00,,,-99.99,564.900024,,2013-07-13 14:53:00,
2013-07-13 11:02:00,84.0,75.0,-100.00,SSE,155,5.0,-999.0,73,0.00,,,-99.99,471.000000,,2013-07-13 15:02:00,
2013-07-13 11:12:00,84.0,75.0,-100.00,SSE,155,5.0,-999.0,73,0.00,,,-99.99,471.000000,,2013-07-13 15:12:00,
2013-07-13 11:22:00,85.0,75.0,-100.00,SSE,158,4.0,-999.0,72,0.00,,,-99.99,641.400024,,2013-07-13 15:22:00,
2013-07-13 11:33:00,85.0,74.0,-100.00,SSE,147,5.0,-999.0,68,0.00,,,-99.99,649.099976,,2013-07-13 15:33:00,
2013-07-13 11:53:00,86.0,74.0,-100.00,SSE,167,6.0,-999.0,66,0.00,,,-99.99,924.000000,,2013-07-13 15:53:00,
2013-07-13 12:22:00,87.0,74.0,-100.00,SSE,162,6.0,-999.0,64,0.00,,,-99.99,837.000000,,2013-07-13 16:22:00,
2013-07-13 12:53:00,88.0,73.0,-100.00,SSE,163,6.0,-999.0,62,0.00,,,-99.99,920.000000,,2013-07-13 16:53:00,
2013-07-13 13:01:00,88.0,73.0,-100.00,SSE,151,6.0,-999.0,59,0.00,,,-99.99,829.000000,,2013-07-13 17:01:00,
2013-07-13 13:22:00,88.0,72.0,-100.00,SSE,167,8.0,-999.0,60,0.00,,,-99.99,760.000000,,2013-07-13 17:22:00,
2013-07-13 13:33:00,89.0,73.0,-100.00,SE,139,7.0,-999.0,59,0.00,,,-99.99,640.000000,,2013-07-13 17:33:00,
2013-07-13 13:52:00,89.0,73.0,-100.00,SE,142,6.0,-999.0,60,0.00,,,-99.99,774.000000,,2013-07-13 17:52:00,
2013-07-13 14:01:00,89.0,73.0,-100.00,SE,139,7.0,-999.0,58,0.00,,,-99.99,692.099976,,2013-07-13 18:01:00,
2013-07-13 14:22:00,89.0,72.0,-100.00,SSE,149,6.0,-999.0,57,0.00,,,-99.99,666.099976,,2013-07-13 18:22:00,
2013-07-13 14:32:00,89.0,73.0,-100.00,ESE,112,6.0,-999.0,59,0.00,,,-99.99,713.000000,,2013-07-13 18:32:00,
2013-07-13 14:53:00,89.0,73.0,-100.00,ESE,104,6.0,-999.0,57,0.00,,,-99.99,660.599976,,2013-07-13 18:53:00,
2013-07-13 15:22:00,90.0,72.0,-100.00,SSE,155,7.0,-999.0,55,0.00,,,-99.99,475.399994,,2013-07-13 19:22:00,
2013-07-13 15:32:00,91.0,72.0,-100.00,SSE,150,8.0,-999.0,55,0.00,,,-99.99,608.200012,,2013-07-13 19:32:00,
2013-07-13 15:52:00,89.0,72.0,-100.00,South,176,10.0,-999.0,56,0.00,,,-99.99,263.600006,,2013-07-13 19:52:00,
2013-07-13 16:53:00,74.0,72.0,-100.00,SW,218,3.0,-999.0,93,0.30,,,-99.99,32.500000,,2013-07-13 20:53:00,
2013-07-13 17:02:00,75.0,73.0,-100.00,SE,144,5.0,-999.0,94,0.03,,,-99.99,17.600000,,2013-07-13 21:02:00,
2013-07-13 17:22:00,74.0,73.0,-100.00,SE,140,7.0,-999.0,95,0.19,,,-99.99,9.100000,,2013-07-13 21:22:00,
2013-07-13 17:32:00,74.0,73.0,-100.00,SE,131,3.0,-999.0,96,0.08,,,-99.99,10.300000,,2013-07-13 21:32:00,
2013-07-13 17:53:00,74.0,73.0,-100.00,East,90,3.0,-999.0,97,0.03,,,-99.99,16.600000,,2013-07-13 21:53:00,
2013-07-13 18:22:00,74.0,74.0,-100.00,North,2,3.0,-999.0,97,0.08,,,-99.99,83.099998,,2013-07-13 22:22:00,
2013-07-13 18:32:00,74.0,74.0,-100.00,NNE,28,2.0,-999.0,97,0.00,,,-99.99,73.900002,,2013-07-13 22:32:00,
2013-07-13 18:53:00,74.0,74.0,-100.00,SE,126,1.0,-999.0,97,0.00,,,-99.99,68.900002,,2013-07-13 22:53:00,
2013-07-13 19:01:00,75.0,74.0,-100.00,North,352,2.0,-999.0,97,0.00,,,-99.99,74.300003,,2013-07-13 23:01:00,
2013-07-13 19:22:00,75.0,74.0,-100.00,NE,35,3.0,-999.0,97,0.00,,,-99.99,72.500000,,2013-07-13 23:22:00,
2013-07-13 19:32:00,75.0,74.0,-100.00,NE,40,4.0,-999.0,98,0.00,,,-99.99,66.900002,,2013-07-13 23:32:00,
2013-07-13 19:53:00,75.0,74.0,-100.00,NE,49,5.0,-999.0,98,0.00,,,-99.99,52.700001,,2013-07-13 23:53:00,
2013-07-13 20:01:00,75.0,74.0,-100.00,NE,35,4.0,-999.0,98,0.00,,,-99.99,45.900002,,2013-07-14 00:01:00,
2013-07-13 20:21:00,75.0,74.0,-100.00,NE,53,4.0,-999.0,97,0.00,,,-99.99,38.099998,,2013-07-14 00:21:00,
2013-07-13 20:53:00,74.0,73.0,-100.00,East,89,3.0,-999.0,97,0.00,,,-99.99,5.200000,,2013-07-14 00:53:00,
2013-07-13 21:22:00,74.0,73.0,-100.00,East,84,2.0,-999.0,98,0.00,,,-99.99,0.000000,,2013-07-14 01:22:00,
2013-07-13 21:52:00,73.0,73.0,-100.00,NE,48,2.0,-999.0,98,0.00,,,-99.99,0.000000,,2013-07-14 01:52:00,
2013-07-13 22:02:00,73.0,73.0,-100.00,SW,229,1.0,-999.0,98,0.00,,,-99.99,0.000000,,2013-07-14 02:02:00,
2013-07-13 22:22:00,74.0,73.0,-100.00,SSE,147,2.0,-999.0,98,0.00,,,-99.99,0.000000,,2013-07-14 02:22:00,
2013-07-13 22:32:00,74.0,73.0,-100.00,ENE,74,3.0,-999.0,98,0.00,,,-99.99,0.000000,,2013-07-14 02:32:00,
2013-07-13 22:53:00,74.0,73.0,-100.00,ENE,69,3.0,-999.0,98,0.00,,,-99.99,0.000000,,2013-07-14 02:53:00,
2013-07-13 23:22:00,73.0,73.0,-100.00,East,93,3.0,-999.0,98,0.00,,,-99.99,0.000000,,2013-07-14 03:22:00,
2013-07-13 23:53:00,73.0,73.0,-100.00,East,92,3.0,-999.0,99,0.00,,,-99.99,0.000000,,2013-07-14 03:53:00,